Time;durP1;ratioP1;P1;durP2;ratioP2;P2;SDS_P1;SDS_P2;PMS_P1;PMS_P2;Temp;Humidity;BMP_temperature;BMP_pressure;BME280_temperature;BME280_humidity;BME280_pressure;Samples;Min_cycle;Max_cycle;Signal;HPM_P1;HPM_P2
2022/05/14 00:02:03;;;;;;;600.85;569.47;;;14.50;99.90;;;15.01;79.07;100492.34;4949868;28;20219;-67
2022/05/14 00:04:31;;;;;;;620.10;585.47;;;14.50;99.90;;;14.95;79.70;100487.94;4966881;28;20203;-67
2022/05/14 00:06:59;;;;;;;612.17;579.65;;;14.50;99.90;;;15.05;78.60;100494.06;4950720;28;20204;-66
2022/05/14 00:09:27;;;;;;;609.40;576.78;;;14.60;99.90;;;14.73;79.42;100460.59;4948028;28;20228;-67
2022/05/14 00:14:42;;;;;;;607.88;574.58;;;14.50;99.90;;;14.49;82.19;100476.75;4999071;28;20209;-67
2022/05/14 00:17:10;;;;;;;608.60;576.28;;;14.50;99.90;;;14.53;82.65;100489.13;4952425;28;20233;-66
2022/05/14 00:19:38;;;;;;;622.72;587.38;;;14.40;99.90;;;14.32;82.65;100479.47;4951937;28;20220;-66
2022/05/14 00:22:06;;;;;;;624.15;589.30;;;14.40;99.90;;;14.26;84.52;100487.44;5000945;28;20215;-66
2022/05/14 00:24:34;;;;;;;624.92;590.15;;;14.30;99.90;;;14.19;85.86;100509.66;4970697;28;20204;-66
2022/05/14 00:27:02;;;;;;;625.38;590.03;;;14.20;99.90;;;14.22;86.05;100530.91;4988094;28;20213;-66
2022/05/14 00:29:30;;;;;;;626.40;590.42;;;14.20;99.90;;;14.06;87.44;100530.09;4947133;28;20227;-66
2022/05/14 00:31:58;;;;;;;632.17;594.53;;;14.10;99.90;;;13.62;90.55;100537.31;4983469;28;20665;-66
2022/05/14 00:34:26;;;;;;;625.00;584.72;;;13.90;99.90;;;13.24;93.24;100547.97;4963664;28;22162;-66
2022/05/14 00:36:54;;;;;;;609.63;574.33;;;13.60;99.90;;;12.89;96.01;100553.19;4963499;28;20231;-66
2022/05/14 00:39:22;;;;;;;612.15;575.85;;;13.40;99.90;;;12.67;96.39;100550.50;4962565;28;20216;-65
2022/05/14 00:41:50;;;;;;;603.65;567.72;;;13.20;99.90;;;12.71;96.33;100567.31;4939989;28;20209;-65
2022/05/14 00:44:18;;;;;;;599.38;564.05;;;13.00;99.90;;;12.71;96.39;100588.53;4955740;28;20201;-66
2022/05/14 00:47:01;;;;;;;589.92;553.70;;;12.90;99.90;;;12.68;97.01;100593.81;4942784;28;20213;-66
2022/05/14 00:49:32;;;;;;;573.45;539.35;;;12.90;99.90;;;12.56;96.88;100599.97;4968947;28;20233;-66
2022/05/14 00:52:01;;;;;;;580.70;545.42;;;12.90;99.90;;;12.70;96.29;100635.41;4954828;28;20209;-65
2022/05/14 00:54:41;;;;;;;583.83;548.53;;;12.90;99.90;;;12.55;96.67;100629.16;4965427;28;20208;-66
2022/05/14 00:57:14;;;;;;;570.50;535.75;;;12.80;99.90;;;12.35;97.97;100623.75;4994024;28;20224;-66
2022/05/14 00:59:43;;;;;;;576.30;540.10;;;12.70;99.90;;;12.37;97.79;100641.47;4948399;28;20232;-65
2022/05/14 01:02:11;;;;;;;561.15;528.20;;;12.70;99.90;;;12.63;97.27;100689.31;4960337;28;20201;-65
2022/05/14 01:04:40;;;;;;;565.65;532.22;;;12.70;99.90;;;12.42;98.15;100668.00;4976923;28;20211;-65
2022/05/14 01:07:16;;;;;;;566.83;531.45;;;12.80;99.90;;;12.48;98.01;100681.31;4978979;28;20208;-65
2022/05/14 01:09:56;;;;;;;565.83;532.03;;;12.80;99.90;;;12.24;99.33;100671.44;4963324;28;20608;-66
2022/05/14 01:12:27;;;;;;;556.08;521.78;;;12.70;99.90;;;12.20;98.83;100668.75;4974034;28;20209;-66
2022/05/14 01:15:13;;;;;;;558.63;524.80;;;12.70;99.90;;;12.37;99.34;100709.53;4966146;28;20204;-65
2022/05/14 01:17:44;;;;;;;556.03;521.03;;;12.60;99.90;;;12.30;99.42;100708.59;4967759;28;20718;-65
2022/05/14 01:20:14;;;;;;;555.08;519.78;;;12.60;99.90;;;12.33;98.07;100715.69;4962353;28;20236;-65
2022/05/14 01:23:07;;;;;;;548.83;513.78;;;12.60;99.90;;;12.09;100.00;100701.38;4965280;28;20220;-65
2022/05/14 01:28:41;;;;;;;523.22;485.48;;;12.30;99.90;;;11.84;100.00;100704.72;4964920;28;20215;-65
2022/05/14 01:31:09;;;;;;;530.70;489.10;;;12.30;99.90;;;11.93;100.00;100735.72;4950680;28;20695;-66
2022/05/14 01:33:37;;;;;;;534.10;494.60;;;12.30;99.90;;;11.77;100.00;100726.72;4966699;28;20243;-66
2022/05/14 01:36:08;;;;;;;529.53;488.10;;;12.30;99.90;;;11.85;100.00;100756.84;4961492;28;20216;-65
2022/05/14 01:38:38;;;;;;;525.85;484.45;;;12.30;99.90;;;11.88;100.00;100759.53;4949196;28;20236;-65
2022/05/14 01:41:06;;;;;;;526.83;487.23;;;12.30;99.90;;;11.73;100.00;100754.06;4980793;28;20650;-65
2022/05/14 01:43:33;;;;;;;528.33;490.35;;;12.30;99.90;;;11.50;100.00;100752.03;4925660;28;20205;-65
2022/05/14 01:46:01;;;;;;;525.30;485.75;;;12.20;99.90;;;11.64;100.00;100773.38;4947201;28;20200;-65
2022/05/14 01:48:30;;;;;;;520.70;482.58;;;12.00;99.90;;;11.70;100.00;100794.66;4979480;28;20220;-65
2022/05/14 01:50:59;;;;;;;522.90;487.38;;;12.00;99.90;;;11.81;100.00;100816.88;4952294;28;20236;-66
2022/05/14 01:53:27;;;;;;;510.75;472.27;;;12.10;99.90;;;11.81;100.00;100819.53;4951518;28;20236;-66
2022/05/14 01:55:56;;;;;;;517.28;477.92;;;12.10;99.90;;;11.79;100.00;100816.00;4946571;28;20217;-66
2022/05/14 01:58:36;;;;;;;516.72;476.70;;;12.10;99.90;;;11.59;100.00;100806.00;4990397;28;20235;-65
2022/05/14 02:01:19;;;;;;;499.90;463.35;;;12.00;99.90;;;11.42;100.00;100805.81;4946124;28;20220;-66
2022/05/14 02:04:03;;;;;;;498.30;461.38;;;12.00;99.90;;;11.30;100.00;100811.84;4964826;28;20215;-66
2022/05/14 02:06:33;;;;;;;506.02;471.40;;;11.90;99.90;;;11.44;100.00;100843.78;4961391;28;20205;-66
2022/05/14 02:09:06;;;;;;;504.58;468.40;;;11.80;99.90;;;11.34;100.00;100849.84;4957673;28;20235;-66
2022/05/14 02:11:36;;;;;;;499.48;465.80;;;11.80;99.90;;;11.37;100.00;100857.81;4978216;28;20216;-66
2022/05/14 02:14:12;;;;;;;497.77;461.52;;;11.80;99.90;;;11.06;100.00;100864.47;4964393;28;20216;-65
2022/05/14 02:16:40;;;;;;;502.40;466.17;;;11.80;99.90;;;11.17;100.00;100879.63;4962647;28;20696;-65
2022/05/14 02:19:08;;;;;;;496.50;458.95;;;11.70;99.90;;;11.17;100.00;100884.94;4952018;28;20225;-65
2022/05/14 02:21:37;;;;;;;488.70;451.58;;;11.60;99.90;;;11.12;100.00;100883.09;4957361;28;20208;-65
2022/05/14 02:24:06;;;;;;;487.60;454.25;;;11.60;99.90;;;11.01;100.00;100897.91;4951661;28;20227;-66
2022/05/14 02:26:34;;;;;;;493.83;460.70;;;11.50;99.90;;;11.02;100.00;100897.94;4965739;28;20212;-65
2022/05/14 02:29:02;;;;;;;495.20;462.40;;;11.50;99.90;;;11.10;100.00;100921.88;4969411;28;20229;-66
2022/05/14 02:31:31;;;;;;;494.27;461.45;;;11.50;99.90;;;11.07;100.00;100917.44;4956621;28;20358;-66
2022/05/14 02:33:59;;;;;;;490.65;457.48;;;11.50;99.90;;;11.06;100.00;100912.13;4960948;28;20216;-66
2022/05/14 02:36:28;;;;;;;490.15;454.98;;;11.50;99.90;;;11.00;100.00;100912.03;4921921;28;20213;-66
2022/05/14 02:38:56;;;;;;;487.10;453.20;;;11.40;99.90;;;10.95;100.00;100924.28;4961761;28;20252;-65
2022/05/14 02:41:24;;;;;;;489.27;455.60;;;11.40;99.90;;;11.00;100.00;100944.66;4944107;28;20238;-65
2022/05/14 02:43:53;;;;;;;481.67;449.30;;;11.40;99.90;;;10.99;100.00;100949.94;4960000;28;20552;-66
2022/05/14 02:46:23;;;;;;;481.52;446.38;;;;;;;10.74;100.00;100951.31;4942768;28;20210;-66
2022/05/14 02:48:51;;;;;;;477.02;442.45;;;11.40;99.90;;;10.27;100.00;100961.91;4971793;28;20217;-66
2022/05/14 02:51:19;;;;;;;470.83;434.48;;;11.20;99.90;;;10.43;100.00;100981.63;4992364;28;20204;-66
2022/05/14 02:53:48;;;;;;;466.80;429.92;;;11.10;99.90;;;10.30;100.00;100983.13;4967417;28;20212;-66
2022/05/14 02:56:16;;;;;;;459.60;424.13;;;11.00;99.90;;;10.00;100.00;100987.78;4969900;28;20212;-65
2022/05/14 03:01:31;;;;;;;445.75;411.33;;;10.70;99.90;;;10.33;100.00;101036.03;4981207;28;20216;-65
2022/05/14 03:04:00;;;;;;;444.05;407.60;;;10.80;99.90;;;10.33;100.00;101028.13;4964425;28;20224;-66
2022/05/14 03:06:29;;;;;;;449.00;413.52;;;10.70;99.90;;;10.35;100.00;101034.31;4959098;28;20216;-65
2022/05/14 03:08:57;;;;;;;449.35;416.05;;;10.80;99.90;;;10.63;100.00;101038.41;4951028;28;20228;-66
2022/05/14 03:11:25;;;;;;;442.02;408.35;;;10.80;99.90;;;9.98;100.00;101031.75;4957981;28;20211;-66
2022/05/14 03:13:54;;;;;;;436.17;400.80;;;10.70;99.90;;;9.78;100.00;101032.25;4940520;28;20224;-66
2022/05/14 03:16:22;;;;;;;441.60;403.58;;;10.50;99.90;;;9.94;100.00;101055.47;4942497;28;20211;-66
2022/05/14 03:18:50;;;;;;;438.38;401.02;;;10.50;99.90;;;10.03;100.00;101070.63;4962381;28;20220;-65
2022/05/14 03:21:18;;;;;;;428.45;393.13;;;10.50;99.90;;;10.24;100.00;101086.09;4946367;28;20216;-65
2022/05/14 03:23:46;;;;;;;435.88;399.05;;;10.50;99.90;;;10.21;100.00;101068.41;4965753;28;20209;-66
2022/05/14 03:26:14;;;;;;;429.15;394.00;;;10.50;99.90;;;10.22;100.00;101064.03;4961699;28;20213;-65
2022/05/14 03:28:42;;;;;;;421.70;387.33;;;10.50;99.90;;;9.78;100.00;101069.22;4939858;28;20231;-65
2022/05/14 03:31:10;;;;;;;428.17;392.55;;;10.50;99.90;;;9.53;100.00;101073.06;4945371;28;20216;-65
2022/05/14 03:33:38;;;;;;;415.10;380.92;;;10.40;99.90;;;9.42;100.00;101089.50;4979433;28;20221;-65
2022/05/14 03:36:08;;;;;;;416.70;381.27;;;10.20;99.90;;;9.40;100.00;101117.59;4975938;28;20204;-65
2022/05/14 03:38:37;;;;;;;409.48;372.48;;;10.00;99.90;;;9.60;100.00;101145.38;4950344;28;20220;-65
2022/05/14 03:41:07;;;;;;;410.10;371.98;;;10.00;99.90;;;9.61;100.00;101144.53;4963894;28;20208;-65
2022/05/14 03:43:37;;;;;;;405.83;368.40;;;10.10;99.90;;;9.57;100.00;101142.66;4979020;28;20200;-65
2022/05/14 03:46:05;;;;;;;399.10;362.58;;;10.00;99.90;;;9.63;100.00;101148.09;4998942;28;20205;-65
2022/05/14 03:48:34;;;;;;;400.75;362.08;;;10.10;99.90;;;9.74;100.00;101158.91;4956369;28;20228;-65
2022/05/14 03:51:03;;;;;;;396.15;356.10;;;10.10;99.90;;;9.57;100.00;101156.75;4963440;28;20205;-65
2022/05/14 03:53:32;;;;;;;396.15;356.92;;;10.10;99.90;;;9.69;100.00;101181.69;4949880;28;20215;-65
2022/05/14 03:56:00;;;;;;;394.75;356.27;;;10.10;99.90;;;9.52;100.00;101182.16;4954326;28;20205;-65
2022/05/14 03:58:28;;;;;;;395.13;359.42;;;10.10;99.90;;;9.38;100.00;101180.03;4973582;28;20205;-65
2022/05/14 04:00:57;;;;;;;394.00;357.00;;;10.00;99.90;;;9.44;100.00;101206.59;4959089;28;20256;-65
2022/05/14 04:03:25;;;;;;;406.88;369.17;;;10.00;99.90;;;9.38;100.00;101211.72;4977682;28;20212;-65
2022/05/14 04:05:53;;;;;;;391.50;349.95;;;9.90;99.90;;;9.69;100.00;101247.72;4969664;28;20215;-65
2022/05/14 04:08:21;;;;;;;387.67;346.80;;;9.90;99.90;;;9.79;100.00;101239.16;4959842;28;20224;-65
2022/05/14 04:10:49;;;;;;;387.58;343.77;;;10.00;99.90;;;9.85;100.00;101229.66;4944930;28;20261;-65
2022/05/14 04:13:18;;;;;;;385.95;340.45;;;10.00;99.90;;;9.80;100.00;101226.00;4954350;28;20204;-65
2022/05/14 04:15:47;;;;;;;385.08;344.02;;;10.00;99.90;;;9.76;100.00;101224.13;4962649;28;20208;-65
2022/05/14 04:18:20;;;;;;;389.92;347.55;;;10.00;99.90;;;9.71;100.00;101219.59;4956861;28;20209;-65
2022/05/14 04:20:48;;;;;;;383.77;344.15;;;10.00;99.90;;;9.82;100.00;101226.94;4944495;28;20236;-66
2022/05/14 04:23:20;;;;;;;388.65;347.88;;;10.10;99.90;;;10.04;100.00;101203.66;4974997;28;20213;-65
2022/05/14 04:25:51;;;;;;;398.60;358.67;;;10.10;99.90;;;9.83;100.00;101201.41;4977926;28;20209;-65
2022/05/14 04:28:22;;;;;;;382.42;345.40;;;10.10;99.90;;;9.78;100.00;101230.34;4980655;28;20247;-65
2022/05/14 04:30:51;;;;;;;381.77;344.10;;;10.00;99.90;;;9.69;100.00;101255.66;4977552;28;20227;-65
2022/05/14 04:33:21;;;;;;;384.17;345.80;;;10.00;99.90;;;9.74;100.00;101265.47;4949128;28;20228;-65
2022/05/14 04:35:50;;;;;;;380.85;343.25;;;10.00;99.90;;;9.87;100.00;101266.66;4947273;28;20205;-65
2022/05/14 04:38:18;;;;;;;384.50;345.70;;;10.00;99.90;;;9.94;100.00;101271.25;4964107;28;20213;-65
2022/05/14 04:40:47;;;;;;;378.65;338.65;;;10.00;99.90;;;10.05;100.00;101274.16;4962663;28;20228;-65
2022/05/14 04:43:15;;;;;;;375.88;335.25;;;10.10;99.90;;;10.09;100.00;101268.09;4959783;28;20217;-65
2022/05/14 04:45:44;;;;;;;378.55;342.88;;;10.10;99.90;;;10.21;100.00;101256.09;4963777;28;20216;-65
2022/05/14 04:48:14;;;;;;;379.33;341.48;;;10.20;99.90;;;10.36;100.00;101242.34;4968187;28;20212;-65
2022/05/14 04:50:44;;;;;;;390.88;352.35;;;10.20;99.90;;;10.49;100.00;101225.91;4935202;28;20228;-65
2022/05/14 04:53:13;;;;;;;384.52;349.00;;;10.30;99.90;;;10.63;100.00;101217.38;4985141;28;20210;-65
2022/05/14 04:55:42;;;;;;;397.15;361.15;;;10.40;99.90;;;10.65;100.00;101210.38;4949663;28;20205;-65
2022/05/14 04:58:11;;;;;;;396.33;360.42;;;10.50;99.90;;;10.54;100.00;101210.16;4964680;28;20228;-65
2022/05/14 05:00:47;;;;;;;395.17;357.63;;;10.50;99.90;;;10.55;100.00;101214.56;4966713;28;20236;-65
2022/05/14 05:03:19;;;;;;;389.88;352.65;;;10.50;99.90;;;10.77;100.00;101229.16;4962679;28;20209;-65
2022/05/14 05:05:57;;;;;;;394.40;353.48;;;10.60;99.90;;;10.94;100.00;101222.44;4970048;28;20592;-65
2022/05/14 05:08:30;;;;;;;403.48;362.27;;;10.70;99.90;;;11.08;100.00;101212.13;4958107;28;20683;-65
2022/05/14 05:10:58;;;;;;;397.63;356.48;;;10.90;99.90;;;11.17;100.00;101217.59;4956965;28;20217;-65
2022/05/14 05:13:30;;;;;;;400.42;359.08;;;10.10;99.90;;;11.42;100.00;101261.31;4969336;28;20213;-65
2022/05/14 05:15:58;;;;;;;399.40;357.48;;;11.10;99.90;;;11.46;100.00;101261.41;4962583;28;20294;-65
2022/05/14 05:18:26;;;;;;;418.20;374.08;;;11.10;99.90;;;11.52;100.00;101276.53;4950581;28;20219;-65
2022/05/14 05:20:55;;;;;;;416.63;374.05;;;11.20;99.90;;;11.61;100.00;101292.59;4965762;28;20232;-65
2022/05/14 05:23:25;;;;;;;413.67;370.17;;;11.20;99.90;;;11.67;100.00;101299.75;4952352;28;20209;-65
2022/05/14 05:25:55;;;;;;;418.60;374.92;;;11.30;99.90;;;11.73;100.00;101303.44;4983074;28;20216;-65
2022/05/14 05:28:24;;;;;;;419.98;372.13;;;11.30;99.90;;;11.82;100.00;101334.56;4982895;28;20215;-65
2022/05/14 05:30:53;;;;;;;426.90;379.63;;;11.40;99.90;;;11.96;100.00;101340.09;4979889;28;20236;-65
2022/05/14 05:33:24;;;;;;;428.00;382.50;;;11.40;99.90;;;12.05;100.00;101348.22;4956940;28;20208;-65
2022/05/14 05:35:53;;;;;;;426.38;381.33;;;11.60;99.90;;;12.04;100.00;101328.75;4961109;28;20205;-65
2022/05/14 05:38:21;;;;;;;436.30;391.13;;;11.60;99.90;;;12.19;100.00;101325.47;4974561;28;20271;-65
2022/05/14 05:40:51;;;;;;;447.92;404.52;;;11.70;99.90;;;12.30;100.00;101320.34;4979337;28;21826;-65
2022/05/14 05:43:19;;;;;;;458.80;418.33;;;11.80;99.90;;;12.35;100.00;101295.69;4960940;28;20211;-65
2022/05/14 05:45:49;;;;;;;453.85;410.75;;;11.90;99.90;;;12.55;100.00;101295.97;4960208;28;20687;-65
2022/05/14 05:48:17;;;;;;;461.60;417.15;;;11.90;99.90;;;12.61;100.00;101268.63;4959238;28;20205;-65
2022/05/14 05:50:48;;;;;;;471.75;427.73;;;12.10;99.90;;;12.60;100.00;101258.91;4961535;28;20233;-65
2022/05/14 05:53:17;;;;;;;481.38;437.08;;;12.10;99.90;;;12.86;100.00;101275.16;4979261;28;20227;-65
2022/05/14 05:58:32;;;;;;;484.83;440.95;;;12.30;99.90;;;13.05;100.00;101275.47;4987892;28;20208;-65
2022/05/14 06:01:00;;;;;;;501.40;461.40;;;12.40;99.90;;;13.22;100.00;101285.41;4978055;28;20239;-66
2022/05/14 06:03:28;;;;;;;504.98;463.80;;;12.60;99.90;;;13.34;100.00;101278.47;4944854;28;20220;-65
2022/05/14 06:05:55;;;;;;;503.15;457.70;;;12.70;99.90;;;13.43;100.00;101265.28;4946546;28;20209;-66
2022/05/14 06:08:25;;;;;;;511.70;468.83;;;12.90;99.90;;;13.50;100.00;101260.06;4947280;28;20214;-65
2022/05/14 06:10:53;;;;;;;529.85;487.23;;;13.00;99.90;;;13.75;100.00;101280.69;4958511;28;20260;-65
2022/05/14 06:13:21;;;;;;;533.00;493.17;;;13.20;99.90;;;13.84;100.00;101267.47;4960368;28;20216;-65
2022/05/14 06:15:49;;;;;;;540.78;499.48;;;13.30;99.90;;;14.04;100.00;101279.16;4983970;28;20228;-65
2022/05/14 06:18:17;;;;;;;549.13;507.05;;;13.40;99.90;;;14.08;100.00;101251.72;4935862;28;20215;-66
2022/05/14 06:20:45;;;;;;;565.00;522.58;;;13.60;99.90;;;14.22;100.00;101262.47;4968020;28;20697;-65
2022/05/14 06:23:14;;;;;;;576.25;529.33;;;13.70;99.90;;;14.44;100.00;101278.63;4981424;28;20217;-65
2022/05/14 06:25:42;;;;;;;557.22;506.27;;;13.80;99.90;;;14.50;100.00;101270.69;4939233;28;20205;-66
2022/05/14 06:28:10;;;;;;;567.58;522.25;;;14.00;99.90;;;14.73;100.00;101269.94;4979895;28;20697;-65
2022/05/14 06:30:43;;;;;;;581.53;536.90;;;14.20;99.90;;;14.72;100.00;101243.31;4967187;28;20241;-65
2022/05/14 06:33:14;;;;;;;583.28;540.50;;;14.30;99.90;;;14.76;100.00;101217.59;4948635;28;20220;-65
2022/05/14 06:35:43;;;;;;;599.33;559.55;;;14.40;99.90;;;15.11;100.00;101239.03;4958100;28;20209;-65
2022/05/14 06:38:14;;;;;;;616.28;575.67;;;14.50;99.90;;;15.26;100.00;101237.31;4966340;28;20205;-65
2022/05/14 06:40:44;;;;;;;620.42;578.47;;;14.70;99.90;;;15.49;100.00;101220.47;4971297;28;20239;-65
2022/05/14 06:43:15;;;;;;;639.95;599.95;;;14.90;99.90;;;15.39;100.00;101206.22;4981535;28;20217;-66
2022/05/14 06:45:44;;;;;;;634.55;597.38;;;15.00;99.90;;;15.90;100.00;101226.78;4954237;28;20212;-66
2022/05/14 06:48:13;;;;;;;660.67;619.88;;;15.30;99.90;;;16.17;100.00;101204.50;4988635;28;20211;-66
2022/05/14 06:50:47;;;;;;;664.30;621.88;;;15.50;99.90;;;16.14;99.60;101169.84;4955452;28;20238;-66
2022/05/14 06:53:18;;;;;;;672.65;629.50;;;15.80;99.90;;;16.15;98.73;101147.59;4955843;28;20201;-66
2022/05/14 06:55:51;;;;;;;681.78;641.20;;;15.80;99.90;;;16.46;96.59;101139.47;4982757;28;20208;-66
2022/05/14 06:58:25;;;;;;;702.13;657.42;;;16.10;99.90;;;16.46;96.53;101126.13;4976710;28;20629;-66
2022/05/14 07:00:53;;;;;;;708.30;665.00;;;16.00;99.90;;;16.48;96.74;101124.34;4955038;28;20248;-66
2022/05/14 07:08:56;;;;;;;729.88;685.88;;;16.40;99.90;;;17.57;87.95;101051.50;4951016;28;20247;-66
2022/05/14 07:11:24;;;;;;;750.28;704.38;;;17.00;99.90;;;17.60;86.98;101015.81;4995613;28;20229;-66
2022/05/14 07:13:52;;;;;;;764.80;718.60;;;17.20;99.90;;;17.46;85.71;100983.84;4984067;28;20201;-66
2022/05/14 07:16:20;;;;;;;770.88;727.05;;;17.40;99.90;;;17.42;84.86;100955.38;4963449;28;20205;-66
2022/05/14 07:18:48;;;;;;;784.13;738.80;;;17.60;99.90;;;17.56;86.75;100980.19;4951556;28;20208;-65
2022/05/14 07:21:16;;;;;;;796.72;751.15;;;17.60;99.90;;;17.78;85.79;100967.47;4984474;28;20206;-65
2022/05/14 07:23:44;;;;;;;806.40;760.22;;;17.70;99.90;;;17.66;84.89;100930.19;4952066;28;20200;-66
2022/05/14 07:26:12;;;;;;;820.30;772.65;;;17.90;99.90;;;17.66;84.05;100914.13;4944664;28;20201;-65
2022/05/14 07:28:40;;;;;;;809.33;764.58;;;17.90;99.90;;;17.74;85.92;100930.97;4954419;28;20188;-66
2022/05/14 07:31:08;;;;;;;824.03;778.88;;;18.00;99.90;;;18.17;83.86;100941.09;4955233;28;20232;-66
2022/05/14 07:33:37;;;;;;;826.78;782.28;;;18.20;99.90;;;18.12;83.71;100914.41;4965463;28;20208;-66
2022/05/14 07:36:17;;;;;;;840.92;794.80;;;18.30;99.90;;;18.28;81.29;100877.59;4974075;28;20206;-66
2022/05/14 07:38:45;;;;;;;852.45;805.38;;;18.50;99.90;;;18.77;81.68;100901.81;4980796;28;20673;-66
2022/05/14 07:41:15;;;;;;;862.50;815.08;;;18.70;99.90;;;18.71;81.00;100874.25;4985329;28;20220;-66
2022/05/14 07:43:49;;;;;;;865.83;817.92;;;18.90;99.90;;;18.65;80.45;100852.94;4988722;28;20220;-66
2022/05/14 07:46:26;;;;;;;869.28;821.85;;;18.90;99.90;;;18.45;80.62;100818.41;4987432;28;20595;-66
2022/05/14 07:48:56;;;;;;;857.67;811.75;;;18.90;99.90;;;18.65;80.95;100827.03;4952963;28;20209;-66
2022/05/14 07:51:25;;;;;;;869.88;822.90;;;19.10;99.90;;;19.00;79.77;100834.41;4959099;28;20235;-66
2022/05/14 07:53:54;;;;;;;864.53;818.20;;;19.30;99.90;;;19.30;79.02;100843.66;4951676;28;20751;-67
2022/05/14 07:56:23;;;;;;;876.50;829.65;;;19.50;99.90;;;18.95;80.05;100798.78;4968408;28;20684;-66
2022/05/14 07:58:51;;;;;;;864.88;818.75;;;19.70;99.90;;;19.06;79.28;100806.59;4952823;28;20196;-66
2022/05/14 08:01:19;;;;;;;875.80;828.90;;;19.20;99.90;;;19.28;78.48;100790.97;4950504;28;20200;-67
2022/05/14 08:03:49;;;;;;;884.55;836.83;;;19.50;99.90;;;19.60;78.28;100801.94;4968431;28;20204;-66
2022/05/14 08:06:18;;;;;;;882.30;835.00;;;19.70;99.90;;;19.49;78.48;100780.66;4963755;28;20208;-66
2022/05/14 08:08:46;;;;;;;899.80;851.78;;;19.90;99.90;;;19.43;77.91;100729.81;4965049;28;20209;-66
2022/05/14 08:11:14;;;;;;;847.97;802.97;;;20.20;99.90;;;19.40;78.60;100737.06;4958565;28;20225;-66
2022/05/14 08:13:42;;;;;;;863.45;817.58;;;20.10;99.90;;;19.75;76.97;100741.69;4965304;28;20205;-67
2022/05/14 08:16:10;;;;;;;868.13;821.78;;;;;;;19.37;77.20;100673.66;4949121;28;20212;-66
2022/05/14 08:18:38;;;;;;;895.97;848.63;;;;;;;19.90;75.58;100711.78;4967451;28;20588;-66
2022/05/14 08:26:40;;;;;;;868.38;821.55;;;21.10;99.90;;;20.50;73.58;100662.78;4988557;28;20212;-67
2022/05/14 08:29:08;;;;;;;974.08;919.10;;;21.30;99.90;;;20.51;73.17;100632.31;4981848;28;20251;-67
2022/05/14 08:31:36;;;;;;;997.47;937.15;;;21.50;99.90;;;19.74;73.48;100536.84;4963904;28;20228;-67
2022/05/14 08:34:04;;;;;;;1001.35;942.30;;;21.00;99.90;;;20.41;72.01;100599.44;4980583;28;20231;-67
2022/05/14 08:36:32;;;;;;;1001.60;943.63;;;20.90;99.90;;;20.78;73.94;100657.50;4945589;28;20208;-67
2022/05/14 08:39:00;;;;;;;1012.10;953.58;;;21.10;99.90;;;20.84;72.41;100613.44;4966738;28;20220;-67
2022/05/14 08:41:30;;;;;;;1014.78;949.67;;;21.60;99.90;;;21.02;70.09;100591.38;4963849;28;20212;-67
2022/05/14 08:44:07;;;;;;;1016.28;952.20;;;21.80;99.90;;;20.65;69.88;100519.91;4957130;28;20228;-67
2022/05/14 08:46:38;;;;;;;1015.97;952.10;;;21.70;99.90;;;21.87;70.31;100655.88;4954110;28;20223;-67
2022/05/14 08:49:20;;;;;;;1020.90;958.33;;;21.90;99.90;;;21.64;70.84;100581.28;4954657;28;20238;-67
2022/05/14 08:51:52;;;;;;;1021.22;959.97;;;22.50;99.90;;;21.15;71.42;100521.94;4981755;28;20219;-67
2022/05/14 08:54:20;;;;;;;1036.20;974.67;;;22.40;99.90;;;21.12;70.71;100506.78;4983261;28;20208;-67
2022/05/14 08:56:53;;;;;;;1029.13;970.20;;;22.40;99.90;;;20.90;70.22;100455.53;4943707;28;20211;-67
2022/05/14 08:59:51;;;;;;;1030.43;971.63;;;22.10;99.90;;;21.14;71.01;100499.56;4952066;28;20243;-67
2022/05/14 09:02:33;;;;;;;1029.88;971.75;;;21.90;99.90;;;20.92;70.11;100436.66;4966352;28;20684;-67
2022/05/14 09:05:17;;;;;;;1030.63;972.17;;;21.80;99.90;;;21.52;71.67;100540.44;4982992;28;20215;-67
2022/05/14 09:07:50;;;;;;;1023.08;965.05;;;21.90;99.90;;;21.33;70.63;100481.00;4966314;28;20207;-67
2022/05/14 09:10:34;;;;;;;1024.78;967.28;;;22.00;99.90;;;21.97;70.40;100537.94;4942373;28;20236;-67
2022/05/14 09:13:21;;;;;;;1022.50;964.42;;;22.30;99.90;;;22.54;66.47;100510.69;4990646;28;20218;-68
2022/05/14 09:16:00;;;;;;;993.00;936.95;;;22.70;99.90;;;21.52;67.42;100365.56;4950710;28;20208;-67
2022/05/14 09:18:31;;;;;;;998.60;942.10;;;22.70;99.90;;;21.52;65.89;100309.91;4954560;28;20222;-67
2022/05/14 09:21:18;;;;;;;987.88;932.15;;;22.90;99.90;;;21.19;66.49;100284.25;4971794;28;20235;-67
2022/05/14 09:23:56;;;;;;;1020.22;962.08;;;22.50;99.90;;;22.71;66.45;100479.50;4974977;28;20212;-67
2022/05/14 09:26:38;;;;;;;973.70;918.55;;;23.00;99.90;;;21.60;66.25;100306.94;4984428;28;20203;-67
2022/05/14 09:29:54;;;;;;;924.40;871.72;;;23.00;99.90;;;22.67;66.95;100435.63;4935802;28;20230;-67
2022/05/14 09:32:22;;;;;;;901.80;849.13;;;23.60;99.90;;;22.89;62.53;100370.94;4952844;28;20231;-67
2022/05/14 09:34:50;;;;;;;843.92;795.08;;;24.20;99.90;;;22.49;63.38;100302.50;4990623;28;20220;-68
2022/05/14 09:37:40;;;;;;;891.95;840.33;;;24.20;99.90;;;23.09;62.89;100314.28;4969012;28;20209;-67
2022/05/14 09:40:25;;;;;;;858.97;808.55;;;24.60;99.90;;;22.10;64.11;100209.84;4971485;28;20232;-67
2022/05/14 09:43:09;;;;;;;886.25;834.70;;;24.20;99.90;;;23.68;63.82;100404.38;4956372;28;20219;-67
2022/05/14 09:45:41;;;;;;;833.63;783.97;;;24.80;99.90;;;24.05;61.67;100354.94;4981912;28;20208;-67
2022/05/14 09:48:11;;;;;;;723.17;678.90;;;25.70;99.90;;;24.25;61.79;100344.91;4951546;28;20207;-67
2022/05/14 09:50:41;;;;;;;641.08;602.15;;;26.30;99.90;;;23.12;63.85;100202.69;4939607;28;20239;-68
2022/05/14 09:53:09;;;;;;;650.65;611.17;;;26.00;99.90;;;23.37;64.05;100254.56;4937058;28;20204;-68
2022/05/14 09:55:58;;;;;;;583.22;547.95;;;26.00;99.90;;;22.50;63.39;100126.38;4984794;28;20208;-68
2022/05/14 09:58:36;;;;;;;561.90;527.88;;;25.60;99.90;;;23.86;63.18;100315.28;4968643;28;20219;-68
2022/05/14 10:01:30;;;;;;;608.97;571.90;;;25.60;99.90;;;24.64;61.17;100213.25;4984066;28;20751;-68
2022/05/14 10:04:45;;;;;;;603.08;566.75;;;26.50;99.90;;;23.75;64.25;100230.34;4979797;28;20207;-68
2022/05/14 10:07:24;;;;;;;593.25;556.63;;;26.10;99.90;;;24.07;65.13;100280.97;4969562;28;20204;-68
2022/05/14 10:10:19;;;;;;;597.55;560.72;;;26.20;99.90;;;24.39;62.74;100279.41;4985668;28;20220;-68
2022/05/14 10:13:19;;;;;;;567.85;533.65;;;26.20;99.90;;;23.24;61.23;100065.41;4954302;28;20219;-68
2022/05/14 10:16:08;;;;;;;634.00;595.00;;;26.20;99.90;;;24.56;61.64;100256.91;4938018;28;20215;-68
2022/05/14 10:19:06;;;;;;;741.58;694.83;;;26.10;99.90;;;27.75;60.46;100454.03;4981148;28;20208;-68
2022/05/14 10:21:57;;;;;;;967.30;908.67;;;27.30;99.90;;;25.93;58.61;100105.91;4985671;28;20242;-69
2022/05/14 10:28:29;;;;;;;801.90;751.88;;;29.00;99.90;;;25.43;60.48;100095.28;4980983;28;20210;-68
2022/05/14 10:31:10;;;;;;;846.78;793.42;;;29.40;99.90;;;25.79;59.51;100106.72;4987413;28;20239;-67